De Soto, Wisconsin
Current Conditions -  °F | °C
As of 12:55 PM on Friday 31 Oct 2014 (Local Time) from KY51 Reporting Station
Broken Clouds Broken Clouds  
Wind Chill: 27°   Ceiling: 3500
Heat Index: 37°   Visibility: 10mi
Dew Point: 20°   Wind: 20mph
Humidity: 50%   Direction: 10°N
Pressure: 30.39"   Gusts: 26mph
Location:  43.43°N, 91.2°W
Report Text: KY51 311755Z AUTO 01017G23KT 10SM BKN035 03/M07 A3039 RMK AO1 T00301066 10035 21010
Loading
Personal Weather Stations






























Interactive Weather Map
Tropical Storm Tracking
New forecast layout! Learn more

10-Day Weather Forecast

Advertisements
Track Severe Weather on mobile